Time;durP1;ratioP1;P1;durP2;ratioP2;P2;SDS_P1;SDS_P2;PMS_P1;PMS_P2;Temp;Humidity;BMP_temperature;BMP_pressure;BME280_temperature;BME280_humidity;BME280_pressure;Samples;Min_cycle;Max_cycle;Signal;HPM_P1;HPM_P2
2022/06/08 00:00:30;;;;;;;3.28;1.90;;;;;;;16.26;nan;100192.50;4989059;28;19925;-75
2022/06/08 00:03:01;;;;;;;2.63;1.60;;;;;;;16.37;nan;100196.44;4987558;28;20493;-75
2022/06/08 00:05:27;;;;;;;2.58;1.73;;;;;;;16.32;nan;100194.38;4986031;28;20085;-75
2022/06/08 00:07:52;;;;;;;2.92;1.77;;;;;;;16.31;nan;100182.06;4989516;28;20062;-75
2022/06/08 00:10:18;;;;;;;2.85;1.90;;;;;;;16.31;nan;100182.06;4989511;28;20045;-75
2022/06/08 00:12:43;;;;;;;2.75;2.05;;;;;;;16.34;nan;100181.66;4989800;28;20407;-75
2022/06/08 00:15:10;;;;;;;2.20;1.90;;;;;;;16.35;nan;100177.97;4987998;28;20034;-75
2022/06/08 00:17:35;;;;;;;4.57;1.92;;;;;;;16.37;nan;100177.78;4985593;28;20504;-75
2022/06/08 00:20:03;;;;;;;3.10;1.80;;;;;;;16.39;nan;100173.06;4986225;28;20043;-75
2022/06/08 00:22:28;;;;;;;5.28;2.10;;;;;;;16.33;nan;100167.50;4988464;28;20109;-75
2022/06/08 00:24:53;;;;;;;;;;;;;;;16.26;nan;100171.16;4990666;28;20125;-75
2022/06/08 00:27:18;;;;;;;2.80;1.80;;;;;;;16.17;nan;100173.16;4992027;28;20359;-75
2022/06/08 00:29:44;;;;;;;;;;;;;;;16.07;nan;100167.38;4995407;28;20096;-75
2022/06/08 00:32:09;;;;;;;2.60;2.00;;;;;;;16.00;nan;100164.66;4980581;28;19922;-75
2022/06/08 00:34:35;;;;;;;2.33;1.70;;;;;;;15.94;nan;100160.09;4988602;28;20368;-75
2022/06/08 00:37:00;;;;;;;4.55;2.10;;;;;;;15.87;nan;100164.56;4992015;28;20043;-75
2022/06/08 00:39:26;;;;;;;3.40;2.00;;;;;;;15.81;nan;100150.19;4990476;28;20085;-75
2022/06/08 00:42:00;;;;;;;;;;;;;;;15.76;nan;100157.13;4983817;28;20042;-75
2022/06/08 00:44:38;;;;;;;2.25;1.60;;;;;;;15.70;nan;100161.38;4984889;28;19929;-75
2022/06/08 00:47:07;;;;;;;3.58;1.88;;;;;;;15.66;nan;100152.06;4980542;28;20034;-75
2022/06/08 00:49:43;;;;;;;3.22;1.75;;;;;;;15.62;nan;100146.31;4986496;28;20509;-75
2022/06/08 00:52:11;;;;;;;3.00;1.90;;;;;;;15.58;nan;100153.06;4981071;28;20058;-75
2022/06/08 00:54:40;;;;;;;3.05;1.80;;;;;;;15.57;nan;100154.09;4990509;28;20114;-75
2022/06/08 00:57:19;;;;;;;2.72;2.10;;;;;;;15.59;nan;100156.53;4979318;28;20054;-75
2022/06/08 00:59:52;;;;;;;2.80;2.10;;;;;;;15.61;nan;100151.84;4986336;28;20031;-75
2022/06/08 01:02:18;;;;;;;3.67;2.00;;;;;;;15.60;nan;100147.53;4990301;28;20050;-75
2022/06/08 01:04:44;;;;;;;2.92;1.95;;;;;;;15.57;nan;100153.28;4983619;28;20035;-75
2022/06/08 01:07:16;;;;;;;3.13;1.80;;;;;;;15.64;nan;100149.63;4979936;28;20406;-75
2022/06/08 01:09:41;;;;;;;2.10;1.70;;;;;;;15.59;nan;100148.53;4983788;28;20030;-75
2022/06/08 01:12:12;;;;;;;2.67;1.63;;;;;;;15.53;nan;100146.66;4988020;28;20097;-74
2022/06/08 01:14:38;;;;;;;2.60;1.67;;;;;;;15.48;nan;100153.38;4985449;28;20034;-75
2022/06/08 01:17:10;;;;;;;2.00;1.60;;;;;;;15.57;nan;100140.75;4986537;28;20501;-75
2022/06/08 01:19:44;;;;;;;1.70;1.30;;;;;;;15.60;nan;100144.88;4988361;28;20487;-75
2022/06/08 01:22:13;;;;;;;1.73;1.30;;;;;;;15.43;nan;100139.00;4986921;28;20034;-75
2022/06/08 01:24:39;;;;;;;1.58;1.30;;;;;;;15.33;nan;100138.53;4965757;28;20053;-75
2022/06/08 01:27:32;;;;;;;1.90;1.30;;;;;;;15.28;nan;100141.75;4988511;28;20030;-75
2022/06/08 01:30:16;;;;;;;4.63;1.50;;;;;;;15.22;nan;100143.34;4988476;28;20049;-75
2022/06/08 01:33:18;;;;;;;3.45;1.67;;;;;;;15.15;nan;100137.13;4987985;28;20030;-75
2022/06/08 01:36:06;;;;;;;2.70;1.35;;;;;;;15.08;nan;100137.06;4987306;28;20038;-74
2022/06/08 01:38:47;;;;;;;3.88;1.63;;;;;;;15.04;nan;100134.97;4987765;28;20088;-75
2022/06/08 01:41:56;;;;;;;1.92;1.60;;;;;;;14.99;nan;100132.06;4979543;28;20039;-75
2022/06/08 01:45:28;;;;;;;;;;;;;;;14.94;nan;100131.81;4982626;28;20082;-75
2022/06/08 01:47:50;;;;;;;;;;;;;;;14.86;nan;100128.25;4980344;28;20083;-75
2022/06/08 01:50:24;;;;;;;3.55;1.90;;;;;;;14.85;nan;100126.63;4985447;28;19918;-75
2022/06/08 01:53:02;;;;;;;1.98;1.40;;;;;;;14.96;nan;100135.09;4986651;28;20489;-75
2022/06/08 01:55:34;;;;;;;2.58;1.70;;;;;;;14.88;nan;100132.59;4972061;28;20045;-75
2022/06/08 01:58:24;;;;;;;1.63;1.40;;;;;;;14.95;nan;100128.97;4987246;28;20422;-75
2022/06/08 02:01:16;;;;;;;3.13;1.90;;;;;;;14.84;nan;100121.47;4987090;28;20526;-75
2022/06/08 02:03:53;;;;;;;2.65;1.80;;;;;;;14.79;nan;100122.03;4978197;28;20038;-75
2022/06/08 02:06:30;;;;;;;2.35;1.80;;;;;;;14.76;nan;100117.09;4980081;28;20046;-75
2022/06/08 02:09:11;;;;;;;2.78;1.80;;;;;;;14.72;nan;100115.00;4986223;28;20110;-75
2022/06/08 02:11:44;;;;;;;2.97;1.55;;;;;;;14.66;nan;100113.94;4985424;28;20122;-75
2022/06/08 02:14:15;;;;;;;1.85;1.40;;;;;;;14.62;nan;100112.66;4986634;28;20034;-74
2022/06/08 02:16:51;;;;;;;2.00;1.50;;;;;;;14.57;nan;100113.22;4987997;28;20031;-75
2022/06/08 02:19:23;;;;;;;3.65;1.60;;;;;;;14.52;nan;100110.25;4982275;28;20026;-75
2022/06/08 02:21:55;;;;;;;1.70;1.20;;;;;;;14.50;nan;100108.81;4984698;28;21441;-75
2022/06/08 02:24:29;;;;;;;1.83;1.30;;;;;;;14.48;nan;100113.50;4987005;28;20122;-75
2022/06/08 02:27:03;;;;;;;1.60;1.20;;;;;;;14.51;nan;100110.44;4969939;28;20511;-74
2022/06/08 02:29:45;;;;;;;1.95;1.48;;;;;;;14.57;nan;100102.56;4984789;28;20042;-75
2022/06/08 02:35:06;;;;;;;2.53;1.58;;;;;;;14.63;nan;100098.31;4988312;28;20450;-75
2022/06/08 02:37:35;;;;;;;2.10;1.70;;;;;;;14.62;nan;100096.69;4985757;28;20034;-75
2022/06/08 02:40:05;;;;;;;2.03;1.20;;;;;;;14.62;nan;100096.69;4964749;28;20031;-75
2022/06/08 02:42:34;;;;;;;1.73;1.25;;;;;;;14.61;nan;100103.00;4985622;28;20057;-75
2022/06/08 02:45:22;;;;;;;2.13;1.55;;;;;;;14.54;nan;100094.13;4979165;28;20034;-75
2022/06/08 02:47:50;;;;;;;3.47;1.38;;;;;;;14.46;nan;100089.72;4984181;28;20046;-75
2022/06/08 02:50:20;;;;;;;1.20;1.10;;;;;;;14.40;nan;100088.66;4987229;28;20034;-75
2022/06/08 02:52:48;;;;;;;1.20;1.10;;;;;;;14.36;nan;100084.69;4989148;28;20044;-75
2022/06/08 02:55:20;;;;;;;1.60;1.17;;;;;;;14.34;nan;100088.56;4987467;28;20512;-75
2022/06/08 02:57:53;;;;;;;1.83;1.10;;;;;;;14.30;nan;100085.47;4989481;28;20038;-75
2022/06/08 03:00:27;;;;;;;1.20;0.90;;;;;;;14.24;nan;100084.38;4983196;28;20031;-75
2022/06/08 03:03:09;;;;;;;1.00;0.88;;;;;;;14.17;nan;100090.63;4985373;28;20400;-75
2022/06/08 03:05:41;;;;;;;1.25;0.98;;;;;;;14.11;nan;100083.38;4990284;28;20046;-75
2022/06/08 03:08:14;;;;;;;1.90;1.30;;;;;;;14.11;nan;100078.91;4990042;28;20092;-75
2022/06/08 03:10:43;;;;;;;2.42;1.77;;;;;;;14.12;nan;100069.91;4989339;28;20034;-74
2022/06/08 03:13:12;;;;;;;2.33;1.52;;;;;;;14.14;nan;100073.19;4991038;28;20511;-75
2022/06/08 03:15:40;;;;;;;1.95;1.50;;;;;;;14.16;nan;100073.03;4988737;28;20475;-74
2022/06/08 03:18:06;;;;;;;2.42;1.40;;;;;;;14.20;nan;100067.13;4989670;28;20038;-74
2022/06/08 03:20:31;;;;;;;2.20;1.15;;;;;;;14.23;nan;100066.78;4991960;28;20042;-75
2022/06/08 03:22:57;;;;;;;1.90;1.08;;;;;;;14.27;nan;100071.72;4990442;28;20407;-75
2022/06/08 03:25:23;;;;;;;1.20;0.90;;;;;;;14.31;nan;100071.16;4989286;28;20154;-75
2022/06/08 03:27:49;;;;;;;1.83;1.17;;;;;;;14.34;nan;100062.78;4994133;28;20226;-75
2022/06/08 03:30:15;;;;;;;1.42;1.02;;;;;;;14.36;nan;100059.94;4991199;28;20301;-75
2022/06/08 03:32:41;;;;;;;1.65;1.13;;;;;;;14.41;nan;100069.00;4986567;28;20057;-75
2022/06/08 03:35:07;;;;;;;1.70;1.00;;;;;;;14.48;nan;100060.28;4973946;28;20031;-75
2022/06/08 03:37:33;;;;;;;1.55;1.00;;;;;;;14.55;nan;100066.53;4986189;28;20034;-75
2022/06/08 03:39:59;;;;;;;1.25;0.88;;;;;;;14.62;nan;100070.91;4989420;28;20040;-75
2022/06/08 03:42:24;;;;;;;1.80;1.30;;;;;;;14.72;nan;100067.09;4993725;28;20034;-75
2022/06/08 03:44:50;;;;;;;1.50;1.20;;;;;;;14.80;nan;100073.13;4990624;28;20047;-75
2022/06/08 03:47:20;;;;;;;1.98;1.35;;;;;;;14.91;nan;100065.63;4988678;28;20042;-74
2022/06/08 03:49:47;;;;;;;1.60;1.17;;;;;;;14.97;nan;100065.72;4987911;28;20204;-75
2022/06/08 03:52:19;;;;;;;1.63;1.15;;;;;;;15.06;nan;100058.38;4984972;28;20050;-75
2022/06/08 03:54:47;;;;;;;;;;;;;;;15.11;nan;100063.13;4990698;28;20034;-75
2022/06/08 03:57:14;;;;;;;1.92;1.50;;;;;;;15.19;nan;100066.50;4990480;28;19981;-75
2022/06/08 03:59:42;;;;;;;2.03;1.40;;;;;;;15.27;nan;100062.84;4988512;28;20035;-75
2022/06/08 04:02:09;;;;;;;2.75;1.88;;;;;;;15.32;nan;100054.28;4990341;28;20460;-75
2022/06/08 04:04:36;;;;;;;2.85;1.80;;;;;;;15.37;nan;100066.00;4990231;28;20065;-75
2022/06/08 04:07:01;;;;;;;3.25;2.20;;;;;;;15.42;nan;100060.09;4988579;28;20065;-75
2022/06/08 04:09:26;;;;;;;3.33;2.22;;;;;;;15.45;nan;100057.88;4990218;28;20042;-75
2022/06/08 04:11:52;;;;;;;5.32;2.50;;;;;;;15.45;nan;100060.53;4988721;28;20513;-74
2022/06/08 04:14:17;;;;;;;3.72;2.30;;;;;;;15.52;nan;100055.25;4989705;28;20065;-75
2022/06/08 04:16:42;;;;;;;3.65;2.30;;;;;;;15.57;nan;100052.00;4989188;28;20039;-75
2022/06/08 04:19:08;;;;;;;5.80;2.22;;;;;;;15.61;nan;100056.75;4992274;28;20519;-74
2022/06/08 04:21:33;;;;;;;5.63;2.42;;;;;;;15.64;nan;100055.53;4988985;28;20080;-75
2022/06/08 04:24:00;;;;;;;3.30;2.30;;;;;;;15.64;nan;100052.84;4990469;28;20038;-75
2022/06/08 04:26:26;;;;;;;3.35;2.20;;;;;;;15.63;nan;100060.00;4987673;28;20396;-75
2022/06/08 04:28:52;;;;;;;3.38;2.20;;;;;;;15.60;nan;100055.06;4995222;28;20045;-75
2022/06/08 04:31:18;;;;;;;3.78;2.30;;;;;;;15.58;nan;100056.28;4989913;28;20030;-75
2022/06/08 04:33:44;;;;;;;5.40;1.88;;;;;;;15.56;nan;100067.13;4986360;28;20038;-74
2022/06/08 04:36:09;;;;;;;5.95;2.80;;;;;;;15.57;nan;100063.47;4990855;28;20798;-75
2022/06/08 04:38:35;;;;;;;3.15;2.20;;;;;;;15.62;nan;100063.72;4991753;28;20026;-74
2022/06/08 04:41:02;;;;;;;3.45;2.20;;;;;;;15.65;nan;100067.81;4989989;28;20133;-75
2022/06/08 04:43:27;;;;;;;3.17;2.17;;;;;;;15.67;nan;100068.44;4988760;28;20036;-75
2022/06/08 04:45:52;;;;;;;2.65;1.85;;;;;;;15.68;nan;100068.25;4988031;28;20042;-75
2022/06/08 04:48:19;;;;;;;2.95;2.10;;;;;;;15.67;nan;100071.13;4989405;28;20037;-75
2022/06/08 04:50:45;;;;;;;3.10;1.80;;;;;;;15.68;nan;100067.41;4986063;28;20045;-75
2022/06/08 04:53:10;;;;;;;2.83;1.98;;;;;;;15.68;nan;100062.94;4988424;28;20059;-75
2022/06/08 04:55:35;;;;;;;3.00;1.80;;;;;;;15.71;nan;100064.41;4990182;28;20046;-75
2022/06/08 04:58:01;;;;;;;4.90;1.70;;;;;;;15.76;nan;100071.81;4985868;28;20046;-74
2022/06/08 05:00:27;;;;;;;4.03;1.55;;;;;;;15.85;nan;100060.78;4977131;28;20847;-74
2022/06/08 05:02:54;;;;;;;2.92;1.85;;;;;;;15.95;nan;100059.63;4984183;28;20038;-75
2022/06/08 05:05:33;;;;;;;4.18;2.08;;;;;;;16.01;nan;100064.94;4985331;28;20038;-74
2022/06/08 05:07:58;;;;;;;3.33;1.98;;;;;;;16.06;nan;100070.50;4984821;28;20038;-75
2022/06/08 05:10:26;;;;;;;2.55;1.75;;;;;;;16.09;nan;100078.13;4983526;28;20045;-75
2022/06/08 05:12:52;;;;;;;2.83;1.70;;;;;;;16.08;nan;100065.81;4989136;28;20041;-74
2022/06/08 05:15:22;;;;;;;4.15;1.88;;;;;;;16.08;nan;100064.97;4962264;28;20030;-75
2022/06/08 05:17:47;;;;;;;2.67;1.77;;;;;;;16.19;nan;100066.28;4986930;28;20452;-74
2022/06/08 05:20:16;;;;;;;3.67;1.98;;;;;;;16.42;nan;100060.56;4988205;28;20034;-74
2022/06/08 05:22:41;;;;;;;3.47;1.80;;;;;;;16.80;nan;100060.88;4988163;28;20038;-75
2022/06/08 05:25:09;;;;;;;4.95;1.70;;;;;;;17.19;nan;100056.59;4986571;28;20403;-75
2022/06/08 05:27:35;;;;;;;3.33;1.60;;;;;;;17.51;nan;100052.22;4984598;28;20070;-75
2022/06/08 05:30:00;;;;;;;4.20;1.90;;;;;;;17.62;nan;100054.25;4992166;28;20073;-75
2022/06/08 05:32:25;;;;;;;2.72;1.40;;;;;;;17.63;nan;100053.22;4988191;28;20126;-75
2022/06/08 05:34:51;;;;;;;2.85;1.60;;;;;;;17.68;nan;100046.44;4984953;28;20058;-75
2022/06/08 05:37:16;;;;;;;2.80;1.65;;;;;;;17.67;nan;100048.28;4986495;28;20481;-74
2022/06/08 05:39:41;;;;;;;2.75;1.58;;;;;;;17.70;nan;100055.06;4988065;28;20574;-74
2022/06/08 05:42:07;;;;;;;3.35;1.52;;;;;;;17.66;nan;100046.63;4990922;28;20034;-74
2022/06/08 05:44:34;;;;;;;3.05;1.52;;;;;;;17.66;nan;100045.81;4983301;28;20038;-75
2022/06/08 05:46:59;;;;;;;3.85;1.55;;;;;;;17.59;nan;100048.50;4986609;28;20085;-74
2022/06/08 05:49:24;;;;;;;3.30;1.60;;;;;;;17.55;nan;100045.44;4988839;28;20042;-74
2022/06/08 05:51:50;;;;;;;4.95;1.95;;;;;;;17.45;nan;100039.72;4985817;28;20041;-75
2022/06/08 05:54:15;;;;;;;3.58;1.40;;;;;;;17.39;nan;100043.19;4987637;28;20026;-75
2022/06/08 05:56:40;;;;;;;4.32;1.88;;;;;;;17.31;nan;100043.44;4988729;28;20114;-74
2022/06/08 05:59:06;;;;;;;3.47;1.70;;;;;;;17.30;nan;100047.13;4988438;28;20042;-74
2022/06/08 06:01:33;;;;;;;4.90;1.58;;;;;;;17.27;nan;100055.56;4984870;28;20386;-74
2022/06/08 06:04:02;;;;;;;5.07;1.75;;;;;;;17.28;nan;100042.00;4985906;28;20054;-75
2022/06/08 06:06:28;;;;;;;4.18;1.70;;;;;;;17.25;nan;100036.22;4979437;28;20038;-75
2022/06/08 06:08:54;;;;;;;3.10;1.55;;;;;;;17.23;nan;100033.75;4988510;28;20042;-75
2022/06/08 06:11:19;;;;;;;6.22;2.00;;;;;;;17.13;nan;100036.03;4984295;28;20122;-75
2022/06/08 06:13:44;;;;;;;3.85;1.65;;;;;;;17.08;nan;100039.31;4963213;28;20463;-74
2022/06/08 06:16:10;;;;;;;2.67;1.40;;;;;;;17.05;nan;100034.41;4985243;28;20044;-74
2022/06/08 06:18:35;;;;;;;2.88;1.40;;;;;;;17.01;nan;100043.84;4984491;28;20034;-75
2022/06/08 06:21:00;;;;;;;3.22;1.55;;;;;;;16.95;nan;100037.50;4987194;28;20039;-74
2022/06/08 06:23:28;;;;;;;2.95;1.40;;;;;;;16.96;nan;100032.97;4988262;28;20516;-75
2022/06/08 06:25:54;;;;;;;5.15;1.45;;;;;;;16.97;nan;100032.78;4974557;28;20039;-75
2022/06/08 06:28:19;;;;;;;2.95;1.48;;;;;;;16.99;nan;100032.53;4992623;28;20064;-75
2022/06/08 06:30:44;;;;;;;;;;;;;;;16.97;nan;100023.91;4986451;28;20040;-75
2022/06/08 06:33:12;;;;;;;2.37;1.20;;;;;;;17.03;nan;100030.28;4987380;28;19925;-75
2022/06/08 06:35:38;;;;;;;3.10;1.52;;;;;;;17.04;nan;100032.78;4991544;28;20365;-75
2022/06/08 06:38:04;;;;;;;4.05;1.60;;;;;;;17.04;nan;100035.44;4983826;28;20470;-75
2022/06/08 06:40:30;;;;;;;3.65;1.38;;;;;;;16.98;nan;100039.75;4984929;28;20384;-75
2022/06/08 06:42:55;;;;;;;3.55;1.52;;;;;;;16.92;nan;100040.56;4986884;28;20038;-75
2022/06/08 06:45:21;;;;;;;3.22;1.52;;;;;;;16.93;nan;100033.38;4982414;28;20086;-75
2022/06/08 06:47:46;;;;;;;3.65;1.80;;;;;;;16.97;nan;100038.09;4985429;28;20042;-75
2022/06/08 06:50:14;;;;;;;1.95;1.20;;;;;;;17.06;nan;100033.34;4980128;28;20058;-75
2022/06/08 06:52:40;;;;;;;4.10;1.60;;;;;;;17.10;nan;100034.59;4985662;28;20081;-75
2022/06/08 06:55:05;;;;;;;3.67;1.52;;;;;;;17.12;nan;100031.72;4983623;28;20038;-75
2022/06/08 06:57:31;;;;;;;3.28;1.50;;;;;;;17.10;nan;100028.44;4987657;28;20503;-75
2022/06/08 06:59:56;;;;;;;3.63;1.60;;;;;;;17.07;nan;100029.69;4987652;28;20042;-75
2022/06/08 07:02:22;;;;;;;2.85;1.30;;;;;;;17.03;nan;100022.28;4987386;28;20042;-75
2022/06/08 07:04:49;;;;;;;2.72;1.50;;;;;;;16.95;nan;100009.97;4984834;28;20088;-75
2022/06/08 07:07:16;;;;;;;3.10;1.40;;;;;;;17.34;nan;100014.44;4986034;28;20070;-75
2022/06/08 07:09:42;;;;;;;2.40;1.10;;;;;;;18.10;nan;100012.16;4987577;28;20042;-75
2022/06/08 07:12:08;;;;;;;2.65;1.20;;;;;;;18.93;nan;100003.19;4986645;28;20192;-75
2022/06/08 07:14:33;;;;;;;2.63;1.10;;;;;;;19.61;nan;100005.78;4984795;28;20118;-75
2022/06/08 07:16:59;;;;;;;3.30;1.33;;;;;;;20.11;nan;100000.22;4986569;28;20163;-75
2022/06/08 07:19:24;;;;;;;4.78;1.30;;;;;;;20.54;nan;99990.31;4985258;28;20037;-75
2022/06/08 07:21:50;;;;;;;3.33;1.50;;;;;;;20.89;nan;99990.41;4987553;28;20065;-75
2022/06/08 07:24:20;;;;;;;4.80;1.30;;;;;;;21.27;nan;99991.00;4984327;28;20476;-76
2022/06/08 07:26:46;;;;;;;4.03;1.60;;;;;;;21.54;nan;99989.44;4986623;28;20456;-75
2022/06/08 07:29:13;;;;;;;3.47;1.08;;;;;;;21.76;nan;99986.09;4987096;28;20045;-75
2022/06/08 07:31:39;;;;;;;2.38;1.10;;;;;;;22.14;nan;99988.19;4988497;28;20038;-76
2022/06/08 07:34:04;;;;;;;4.82;1.63;;;;;;;22.54;nan;99981.09;4985431;28;20403;-75
2022/06/08 07:36:30;;;;;;;2.72;1.20;;;;;;;22.82;nan;99977.53;4991481;28;20038;-76
2022/06/08 07:38:56;;;;;;;2.33;1.00;;;;;;;23.21;nan;99967.59;4990615;28;20038;-75
2022/06/08 07:41:22;;;;;;;2.67;1.10;;;;;;;23.64;nan;99971.38;4993037;28;20035;-75
2022/06/08 07:43:47;;;;;;;2.17;1.00;;;;;;;24.09;nan;99978.38;4991686;28;20112;-75
2022/06/08 07:46:13;;;;;;;2.57;1.00;;;;;;;24.43;nan;99964.69;4986231;28;20042;-75
2022/06/08 07:51:22;;;;;;;2.92;1.15;;;;;;;25.58;nan;99963.28;4989522;28;20033;-76
2022/06/08 07:53:48;;;;;;;1.88;0.88;;;;;;;26.18;nan;99958.31;4990055;28;20050;-75
2022/06/08 07:56:13;;;;;;;4.47;1.20;;;;;;;26.35;nan;99949.91;4987828;28;20050;-77
2022/06/08 07:58:38;;;;;;;4.10;1.20;;;;;;;26.15;nan;99948.00;4990919;28;20266;-75
2022/06/08 08:01:06;;;;;;;1.83;0.80;;;;;;;25.86;nan;99951.19;4989859;28;20053;-75
2022/06/08 08:03:31;;;;;;;2.38;1.10;;;;;;;25.66;nan;99951.13;4985340;28;20056;-74
2022/06/08 08:05:57;;;;;;;2.85;1.10;;;;;;;25.47;nan;99943.47;4974329;28;20496;-75
2022/06/08 08:08:22;;;;;;;3.45;1.10;;;;;;;25.47;nan;99939.94;4990476;28;20069;-75
2022/06/08 08:10:48;;;;;;;1.90;0.90;;;;;;;25.72;nan;99940.03;4997500;28;20137;-75
2022/06/08 08:13:14;;;;;;;2.00;1.00;;;;;;;26.37;nan;99948.56;4990562;28;20121;-76
2022/06/08 08:15:42;;;;;;;2.40;0.90;;;;;;;26.71;nan;99936.38;4986552;28;20038;-75
2022/06/08 08:18:08;;;;;;;2.72;0.85;;;;;;;26.77;nan;99937.97;4989118;28;20042;-75
2022/06/08 08:20:34;;;;;;;2.30;0.90;;;;;;;26.62;nan;99944.25;4989104;28;20125;-77
2022/06/08 08:23:00;;;;;;;2.63;1.02;;;;;;;26.10;nan;99937.16;4990259;28;20570;-75
2022/06/08 08:25:26;;;;;;;1.50;0.68;;;;;;;25.74;nan;99934.34;4990845;28;20038;-74
2022/06/08 08:27:52;;;;;;;2.42;0.80;;;;;;;25.43;nan;99942.34;4989223;28;20660;-77
2022/06/08 08:30:22;;;;;;;2.10;0.70;;;;;;;25.30;nan;99937.44;4989201;28;20568;-75
2022/06/08 08:32:48;;;;;;;1.90;0.90;;;;;;;25.19;nan;99942.81;4989353;28;20038;-75
2022/06/08 08:35:16;;;;;;;2.25;0.85;;;;;;;24.84;nan;99934.44;4990669;28;20037;-75
2022/06/08 08:37:42;;;;;;;3.05;0.82;;;;;;;24.66;nan;99933.78;4986378;28;20500;-74
2022/06/08 08:40:35;;;;;;;3.45;1.00;;;;;;;24.77;nan;99921.16;4989039;28;20038;-76
2022/06/08 08:43:01;;;;;;;2.78;1.00;;;;;;;24.98;nan;99920.22;4986066;28;20038;-76
2022/06/08 08:45:29;;;;;;;2.53;0.88;;;;;;;25.19;nan;99917.63;4990063;28;20049;-77
2022/06/08 08:48:02;;;;;;;1.88;0.77;;;;;;;25.55;nan;99909.66;4988590;28;20031;-74
2022/06/08 08:50:40;;;;;;;1.40;0.63;;;;;;;26.80;nan;99910.34;4989759;28;20579;-75
2022/06/08 08:53:23;;;;;;;3.15;0.80;;;;;;;28.25;nan;99901.22;4987478;28;20516;-77
2022/06/08 08:55:58;;;;;;;1.98;0.85;;;;;;;28.26;nan;99905.56;4986000;28;20042;-76
2022/06/08 08:58:33;;;;;;;1.98;1.00;;;;;;;29.40;nan;99904.13;4989671;28;20038;-75
2022/06/08 09:01:01;;;;;;;2.05;0.80;;;;;;;30.61;nan;99909.97;4986431;28;20495;-76
2022/06/08 09:03:32;;;;;;;2.80;0.90;;;;;;;30.42;nan;99901.84;4989745;28;20229;-76
2022/06/08 09:06:19;;;;;;;1.88;0.80;;;;;;;29.55;nan;99889.50;4988485;28;20043;-76
2022/06/08 09:08:51;;;;;;;2.40;0.73;;;;;;;28.83;nan;99895.78;4989421;28;20161;-76
2022/06/08 09:11:26;;;;;;;2.78;0.80;;;;;;;28.75;nan;99885.56;4988331;28;20045;-75
2022/06/08 09:13:55;;;;;;;2.05;0.80;;;;;;;29.56;nan;99881.03;4981336;28;20097;-75
2022/06/08 09:16:30;;;;;;;1.40;0.70;;;;;;;30.83;nan;99890.19;4987389;28;20462;-76
2022/06/08 09:18:55;;;;;;;3.17;0.80;;;;;;;31.56;nan;99880.25;4981128;28;20129;-76
2022/06/08 09:21:26;;;;;;;1.50;0.55;;;;;;;32.11;nan;99879.25;4988563;28;20034;-75
2022/06/08 09:23:55;;;;;;;2.20;0.70;;;;;;;32.87;nan;99872.88;4988518;28;20034;-76
2022/06/08 09:26:23;;;;;;;2.35;0.75;;;;;;;33.46;nan;99870.63;4989266;28;20105;-76
2022/06/08 09:28:56;;;;;;;1.15;0.65;;;;;;;34.14;nan;99875.69;4990482;28;20057;-76
2022/06/08 09:31:24;;;;;;;1.55;0.50;;;;;;;33.97;nan;99866.31;4988947;28;20034;-76
2022/06/08 09:34:05;;;;;;;1.00;0.57;;;;;;;33.44;nan;99856.44;4971297;28;20038;-76
2022/06/08 09:36:31;;;;;;;2.53;0.90;;;;;;;33.59;nan;99850.53;4989058;28;20034;-76
2022/06/08 09:38:56;;;;;;;2.13;0.80;;;;;;;33.70;nan;99847.44;4987828;28;20046;-76
2022/06/08 09:41:34;;;;;;;2.90;0.90;;;;;;;33.60;nan;99854.88;4974104;28;20042;-76
2022/06/08 09:44:11;;;;;;;3.33;0.85;;;;;;;33.72;nan;99842.44;4987438;28;20088;-76
2022/06/08 09:52:58;;;;;;;2.38;0.75;;;;;;;33.10;nan;99832.56;4984898;28;20522;-76
2022/06/08 09:55:38;;;;;;;1.85;0.60;;;;;;;34.06;nan;99830.59;4989427;28;20074;-76
2022/06/08 09:58:07;;;;;;;3.17;1.00;;;;;;;34.46;nan;99833.91;4989714;28;20116;-76
2022/06/08 10:00:52;;;;;;;1.92;0.82;;;;;;;34.22;nan;99828.97;4989041;28;20049;-76
2022/06/08 10:03:40;;;;;;;2.63;0.73;;;;;;;34.45;nan;99815.03;4972345;28;20100;-76
2022/06/08 10:06:28;;;;;;;3.65;0.90;;;;;;;34.60;nan;99816.44;4988696;28;20042;-76
2022/06/08 10:09:15;;;;;;;1.95;0.77;;;;;;;34.86;nan;99814.38;4990062;28;20035;-76
2022/06/08 10:11:43;;;;;;;2.35;0.70;;;;;;;34.54;nan;99812.22;4984096;28;20099;-76
2022/06/08 10:14:16;;;;;;;2.00;0.70;;;;;;;35.11;nan;99822.78;4986243;28;20083;-76
2022/06/08 10:16:49;;;;;;;1.70;0.60;;;;;;;34.57;nan;99808.84;4983911;28;20177;-76
2022/06/08 10:19:25;;;;;;;2.65;0.88;;;;;;;35.18;nan;99814.81;4969454;28;20041;-76
2022/06/08 10:21:52;;;;;;;2.05;0.68;;;;;;;33.99;nan;99800.13;4971721;28;20450;-76
2022/06/08 10:24:25;;;;;;;3.40;0.85;;;;;;;32.29;nan;99792.63;4988264;28;20169;-75
2022/06/08 10:27:02;;;;;;;2.38;0.75;;;;;;;31.99;nan;99792.31;4992454;28;20038;-75
2022/06/08 10:29:31;;;;;;;1.48;0.75;;;;;;;31.21;nan;99786.22;4991238;28;20583;-75
2022/06/08 10:32:05;;;;;;;2.20;0.77;;;;;;;31.04;nan;99779.47;4988683;28;20046;-75
2022/06/08 10:34:33;;;;;;;2.03;0.70;;;;;;;30.17;nan;99783.84;4988033;28;20037;-76
2022/06/08 10:37:07;;;;;;;1.25;0.60;;;;;;;29.17;nan;99784.06;4988382;28;20045;-75
2022/06/08 10:39:35;;;;;;;1.67;0.70;;;;;;;28.71;nan;99783.84;4989253;28;20037;-76
2022/06/08 10:44:59;;;;;;;2.40;0.90;;;;;;;32.41;nan;99772.88;4986841;28;20220;-76
2022/06/08 10:47:29;;;;;;;1.75;0.63;;;;;;;33.57;nan;99773.28;4985219;28;20495;-76
2022/06/08 10:50:02;;;;;;;1.08;0.43;;;;;;;33.65;nan;99777.13;4989190;28;20034;-76
2022/06/08 10:52:45;;;;;;;2.25;0.70;;;;;;;32.55;nan;99779.06;4985515;28;20042;-75
2022/06/08 10:55:13;;;;;;;1.60;0.60;;;;;;;31.00;nan;99778.44;4987645;28;20038;-75
2022/06/08 10:57:49;;;;;;;1.00;0.45;;;;;;;29.81;nan;99770.06;4988420;28;20041;-75
2022/06/08 11:00:21;;;;;;;1.33;0.60;;;;;;;29.13;nan;99768.63;4986767;28;20041;-75
2022/06/08 11:02:51;;;;;;;1.45;0.55;;;;;;;28.75;nan;99755.75;4983684;28;20073;-75
2022/06/08 11:05:39;;;;;;;1.40;0.52;;;;;;;29.98;nan;99750.41;4986626;28;20510;-75
2022/06/08 11:08:07;;;;;;;2.35;0.63;;;;;;;32.17;nan;99742.03;4986577;28;20038;-75
2022/06/08 11:10:41;;;;;;;2.78;0.80;;;;;;;34.22;nan;99745.88;4990434;28;20045;-76
2022/06/08 11:13:50;;;;;;;3.28;0.90;;;;;;;35.25;nan;99740.09;4990775;28;20041;-76
2022/06/08 11:16:28;;;;;;;1.10;0.50;;;;;;;33.93;nan;99738.38;4989519;28;20041;-76
2022/06/08 11:19:00;;;;;;;2.25;0.55;;;;;;;33.72;nan;99730.03;4990208;28;20146;-76
2022/06/08 11:21:50;;;;;;;2.72;0.60;;;;;;;35.61;nan;99719.38;4990829;28;20057;-76
2022/06/08 11:24:36;;;;;;;2.08;0.63;;;;;;;35.19;nan;99723.00;4989882;28;20062;-76
2022/06/08 11:27:11;;;;;;;1.95;0.80;;;;;;;35.07;nan;99722.91;4989780;28;20116;-76
2022/06/08 11:29:46;;;;;;;2.17;0.70;;;;;;;36.12;nan;99712.50;4991005;28;20432;-76
2022/06/08 11:32:24;;;;;;;1.50;0.60;;;;;;;37.17;nan;99719.28;4989049;28;20052;-76
2022/06/08 11:34:55;;;;;;;1.52;0.60;;;;;;;37.54;nan;99702.56;4988480;28;20108;-76
2022/06/08 11:37:34;;;;;;;2.45;0.68;;;;;;;38.54;nan;99702.31;4990131;28;20046;-76
2022/06/08 11:40:25;;;;;;;1.77;0.77;;;;;;;39.05;nan;99713.31;4993196;28;20515;-74
2022/06/08 11:42:55;;;;;;;;;;;;;;;38.88;nan;99708.97;4988038;28;20419;-73
2022/06/08 11:45:35;;;;;;;1.70;0.80;;;;;;;37.44;nan;99698.34;4972834;28;20037;-76
2022/06/08 11:48:13;;;;;;;1.95;0.68;;;;;;;35.78;nan;99699.97;4978568;28;20030;-74
2022/06/08 11:50:48;;;;;;;;;;;;;;;34.85;nan;99691.09;4988913;28;20578;-73
2022/06/08 11:53:25;;;;;;;;;;;;;;;33.29;nan;99690.56;4990702;28;19918;-74
2022/06/08 11:55:56;;;;;;;2.45;0.77;;;;;;;33.02;nan;99688.94;4987872;28;19924;-74
2022/06/08 11:58:27;;;;;;;2.28;0.80;;;;;;;34.71;nan;99685.88;4989245;28;20038;-74
2022/06/08 12:01:10;;;;;;;3.03;0.77;;;;;;;35.45;nan;99688.97;4990639;28;20318;-76
2022/06/08 12:03:44;;;;;;;1.25;0.60;;;;;;;33.73;nan;99680.34;4990172;28;20030;-73
2022/06/08 12:06:22;;;;;;;1.40;0.80;;;;;;;32.35;nan;99679.97;4990721;28;20046;-74
2022/06/08 12:08:53;;;;;;;2.17;0.50;;;;;;;31.60;nan;99678.19;4987954;28;20046;-74
2022/06/08 12:11:22;;;;;;;1.45;0.63;;;;;;;31.08;nan;99673.97;4990346;28;20042;-74
2022/06/08 12:13:57;;;;;;;2.47;1.00;;;;;;;30.60;nan;99669.00;4987420;28;20262;-76
2022/06/08 12:16:35;;;;;;;1.95;0.70;;;;;;;29.88;nan;99672.34;4989282;28;20045;-76